sensor_id;sensor_type;location;lat;lon;timestamp;P1;durP1;ratioP1;P2;durP2;ratioP2
21943;SDS011;11136;48.778;9.126;2023-03-21T00:01:29;3.53;;;1.38;;
21943;SDS011;11136;48.778;9.126;2023-03-21T00:03:54;1.77;;;1.13;;
21943;SDS011;11136;48.778;9.126;2023-03-21T00:06:20;2.17;;;1.30;;
21943;SDS011;11136;48.778;9.126;2023-03-21T00:08:46;2.47;;;1.35;;
21943;SDS011;11136;48.778;9.126;2023-03-21T00:11:12;5.82;;;1.63;;
21943;SDS011;11136;48.778;9.126;2023-03-21T00:13:38;4.03;;;1.60;;
21943;SDS011;11136;48.778;9.126;2023-03-21T00:16:10;2.15;;;1.25;;
21943;SDS011;11136;48.778;9.126;2023-03-21T00:18:44;2.70;;;1.30;;
21943;SDS011;11136;48.778;9.126;2023-03-21T00:21:16;3.03;;;1.52;;
21943;SDS011;11136;48.778;9.126;2023-03-21T00:23:43;2.38;;;1.30;;
21943;SDS011;11136;48.778;9.126;2023-03-21T00:26:10;6.00;;;1.73;;
21943;SDS011;11136;48.778;9.126;2023-03-21T00:28:37;2.10;;;1.23;;
21943;SDS011;11136;48.778;9.126;2023-03-21T00:31:04;2.20;;;1.40;;
21943;SDS011;11136;48.778;9.126;2023-03-21T00:33:30;4.85;;;1.25;;
21943;SDS011;11136;48.778;9.126;2023-03-21T00:35:56;3.65;;;1.27;;
21943;SDS011;11136;48.778;9.126;2023-03-21T00:38:22;3.00;;;1.48;;
21943;SDS011;11136;48.778;9.126;2023-03-21T00:40:49;2.00;;;1.45;;
21943;SDS011;11136;48.778;9.126;2023-03-21T00:43:15;2.72;;;1.45;;
21943;SDS011;11136;48.778;9.126;2023-03-21T00:45:43;3.38;;;1.48;;
21943;SDS011;11136;48.778;9.126;2023-03-21T00:48:10;4.40;;;1.40;;
21943;SDS011;11136;48.778;9.126;2023-03-21T00:50:36;5.88;;;2.03;;
21943;SDS011;11136;48.778;9.126;2023-03-21T00:53:04;4.80;;;1.20;;
21943;SDS011;11136;48.778;9.126;2023-03-21T00:55:32;3.45;;;1.52;;
21943;SDS011;11136;48.778;9.126;2023-03-21T00:57:58;3.10;;;1.40;;
21943;SDS011;11136;48.778;9.126;2023-03-21T01:00:25;2.85;;;1.45;;
21943;SDS011;11136;48.778;9.126;2023-03-21T01:02:51;1.80;;;1.35;;
21943;SDS011;11136;48.778;9.126;2023-03-21T01:08:09;9.25;;;1.77;;
21943;SDS011;11136;48.778;9.126;2023-03-21T01:10:43;4.93;;;1.57;;
21943;SDS011;11136;48.778;9.126;2023-03-21T01:13:11;1.90;;;1.33;;
21943;SDS011;11136;48.778;9.126;2023-03-21T01:15:45;4.03;;;1.60;;
21943;SDS011;11136;48.778;9.126;2023-03-21T01:18:12;2.17;;;1.67;;
21943;SDS011;11136;48.778;9.126;2023-03-21T01:20:40;3.28;;;1.10;;
21943;SDS011;11136;48.778;9.126;2023-03-21T01:23:06;3.05;;;1.55;;
21943;SDS011;11136;48.778;9.126;2023-03-21T01:25:32;6.38;;;2.53;;
21943;SDS011;11136;48.778;9.126;2023-03-21T01:27:58;3.17;;;1.73;;
21943;SDS011;11136;48.778;9.126;2023-03-21T01:30:24;4.40;;;1.63;;
21943;SDS011;11136;48.778;9.126;2023-03-21T01:32:50;3.80;;;1.40;;
21943;SDS011;11136;48.778;9.126;2023-03-21T01:35:16;1.88;;;1.38;;
21943;SDS011;11136;48.778;9.126;2023-03-21T01:37:41;2.25;;;1.40;;
21943;SDS011;11136;48.778;9.126;2023-03-21T01:40:07;4.43;;;1.50;;
21943;SDS011;11136;48.778;9.126;2023-03-21T01:42:40;5.93;;;1.30;;
21943;SDS011;11136;48.778;9.126;2023-03-21T01:45:57;2.42;;;1.50;;
21943;SDS011;11136;48.778;9.126;2023-03-21T01:48:10;2.78;;;1.35;;
21943;SDS011;11136;48.778;9.126;2023-03-21T01:50:36;2.70;;;1.50;;
21943;SDS011;11136;48.778;9.126;2023-03-21T01:53:04;3.22;;;1.77;;
21943;SDS011;11136;48.778;9.126;2023-03-21T01:55:31;2.15;;;1.50;;
21943;SDS011;11136;48.778;9.126;2023-03-21T01:57:57;3.60;;;1.80;;
21943;SDS011;11136;48.778;9.126;2023-03-21T02:00:25;1.85;;;1.42;;
21943;SDS011;11136;48.778;9.126;2023-03-21T02:02:53;3.75;;;1.58;;
21943;SDS011;11136;48.778;9.126;2023-03-21T02:05:28;4.05;;;1.85;;
21943;SDS011;11136;48.778;9.126;2023-03-21T02:08:10;5.10;;;1.70;;
21943;SDS011;11136;48.778;9.126;2023-03-21T02:10:37;2.50;;;1.58;;
21943;SDS011;11136;48.778;9.126;2023-03-21T02:13:04;5.30;;;1.60;;
21943;SDS011;11136;48.778;9.126;2023-03-21T02:15:36;1.92;;;1.60;;
21943;SDS011;11136;48.778;9.126;2023-03-21T02:18:13;1.77;;;1.50;;
21943;SDS011;11136;48.778;9.126;2023-03-21T02:29:05;6.22;;;2.05;;
21943;SDS011;11136;48.778;9.126;2023-03-21T02:34:44;2.45;;;1.77;;
21943;SDS011;11136;48.778;9.126;2023-03-21T02:37:40;3.80;;;1.77;;
21943;SDS011;11136;48.778;9.126;2023-03-21T02:40:13;3.25;;;1.67;;
21943;SDS011;11136;48.778;9.126;2023-03-21T02:42:52;2.50;;;1.70;;
21943;SDS011;11136;48.778;9.126;2023-03-21T02:45:29;4.57;;;1.83;;
21943;SDS011;11136;48.778;9.126;2023-03-21T02:48:05;2.63;;;1.63;;
21943;SDS011;11136;48.778;9.126;2023-03-21T02:53:12;2.78;;;1.60;;
21943;SDS011;11136;48.778;9.126;2023-03-21T02:55:41;5.93;;;1.95;;
21943;SDS011;11136;48.778;9.126;2023-03-21T02:58:11;2.03;;;1.65;;
21943;SDS011;11136;48.778;9.126;2023-03-21T03:00:41;3.17;;;1.80;;
21943;SDS011;11136;48.778;9.126;2023-03-21T03:03:08;3.33;;;1.67;;
21943;SDS011;11136;48.778;9.126;2023-03-21T03:05:36;2.72;;;1.70;;
21943;SDS011;11136;48.778;9.126;2023-03-21T03:10:58;3.72;;;2.15;;
21943;SDS011;11136;48.778;9.126;2023-03-21T03:21:26;4.03;;;2.00;;
21943;SDS011;11136;48.778;9.126;2023-03-21T03:24:17;3.40;;;1.95;;
21943;SDS011;11136;48.778;9.126;2023-03-21T03:26:54;5.15;;;2.13;;
21943;SDS011;11136;48.778;9.126;2023-03-21T03:29:31;3.50;;;1.90;;
21943;SDS011;11136;48.778;9.126;2023-03-21T03:32:00;3.33;;;2.10;;
21943;SDS011;11136;48.778;9.126;2023-03-21T03:34:32;2.85;;;1.70;;
21943;SDS011;11136;48.778;9.126;2023-03-21T03:37:04;4.03;;;2.03;;
21943;SDS011;11136;48.778;9.126;2023-03-21T03:39:38;6.38;;;2.28;;
21943;SDS011;11136;48.778;9.126;2023-03-21T03:42:11;8.27;;;2.75;;
21943;SDS011;11136;48.778;9.126;2023-03-21T03:45:00;5.32;;;1.63;;
21943;SDS011;11136;48.778;9.126;2023-03-21T03:50:11;2.90;;;2.30;;
21943;SDS011;11136;48.778;9.126;2023-03-21T03:52:50;4.60;;;2.15;;
21943;SDS011;11136;48.778;9.126;2023-03-21T03:55:20;5.68;;;2.10;;
21943;SDS011;11136;48.778;9.126;2023-03-21T03:57:47;3.47;;;1.95;;
21943;SDS011;11136;48.778;9.126;2023-03-21T04:00:13;4.57;;;1.75;;
21943;SDS011;11136;48.778;9.126;2023-03-21T04:02:41;3.60;;;1.90;;
21943;SDS011;11136;48.778;9.126;2023-03-21T04:05:07;6.15;;;1.98;;
21943;SDS011;11136;48.778;9.126;2023-03-21T04:07:33;6.70;;;2.42;;
21943;SDS011;11136;48.778;9.126;2023-03-21T04:09:59;2.53;;;1.90;;
21943;SDS011;11136;48.778;9.126;2023-03-21T04:12:24;3.67;;;2.10;;
21943;SDS011;11136;48.778;9.126;2023-03-21T04:14:50;3.08;;;1.90;;
21943;SDS011;11136;48.778;9.126;2023-03-21T04:17:16;3.35;;;2.00;;
21943;SDS011;11136;48.778;9.126;2023-03-21T04:19:43;3.05;;;2.10;;
21943;SDS011;11136;48.778;9.126;2023-03-21T04:22:09;2.92;;;2.13;;
21943;SDS011;11136;48.778;9.126;2023-03-21T04:24:36;3.58;;;2.10;;
21943;SDS011;11136;48.778;9.126;2023-03-21T04:27:02;6.00;;;2.60;;
21943;SDS011;11136;48.778;9.126;2023-03-21T04:29:30;4.70;;;2.38;;
21943;SDS011;11136;48.778;9.126;2023-03-21T04:31:56;3.72;;;2.17;;
21943;SDS011;11136;48.778;9.126;2023-03-21T04:34:22;6.43;;;1.73;;
21943;SDS011;11136;48.778;9.126;2023-03-21T04:36:52;4.90;;;2.20;;
21943;SDS011;11136;48.778;9.126;2023-03-21T04:39:19;7.35;;;2.83;;
21943;SDS011;11136;48.778;9.126;2023-03-21T04:41:46;6.88;;;2.33;;
21943;SDS011;11136;48.778;9.126;2023-03-21T04:44:12;5.63;;;2.40;;
21943;SDS011;11136;48.778;9.126;2023-03-21T04:46:39;3.03;;;2.22;;
21943;SDS011;11136;48.778;9.126;2023-03-21T04:49:05;5.43;;;2.35;;
21943;SDS011;11136;48.778;9.126;2023-03-21T04:51:32;4.22;;;2.20;;
21943;SDS011;11136;48.778;9.126;2023-03-21T04:53:58;6.03;;;2.35;;
21943;SDS011;11136;48.778;9.126;2023-03-21T04:56:24;2.63;;;2.30;;
21943;SDS011;11136;48.778;9.126;2023-03-21T04:58:57;4.85;;;2.28;;
21943;SDS011;11136;48.778;9.126;2023-03-21T05:01:23;4.43;;;2.30;;
21943;SDS011;11136;48.778;9.126;2023-03-21T05:03:50;4.03;;;2.30;;
21943;SDS011;11136;48.778;9.126;2023-03-21T05:06:16;3.13;;;2.10;;
21943;SDS011;11136;48.778;9.126;2023-03-21T05:08:42;5.60;;;2.53;;
21943;SDS011;11136;48.778;9.126;2023-03-21T05:11:08;5.78;;;2.03;;
21943;SDS011;11136;48.778;9.126;2023-03-21T05:13:33;4.65;;;2.15;;
21943;SDS011;11136;48.778;9.126;2023-03-21T05:15:59;2.50;;;2.28;;
21943;SDS011;11136;48.778;9.126;2023-03-21T05:18:25;8.27;;;2.92;;
21943;SDS011;11136;48.778;9.126;2023-03-21T05:20:52;4.40;;;2.03;;
21943;SDS011;11136;48.778;9.126;2023-03-21T05:23:18;4.80;;;2.75;;
21943;SDS011;11136;48.778;9.126;2023-03-21T05:25:47;8.13;;;2.83;;
21943;SDS011;11136;48.778;9.126;2023-03-21T05:28:13;3.95;;;2.30;;
21943;SDS011;11136;48.778;9.126;2023-03-21T05:30:42;4.50;;;2.67;;
21943;SDS011;11136;48.778;9.126;2023-03-21T05:33:09;4.13;;;2.38;;
21943;SDS011;11136;48.778;9.126;2023-03-21T05:35:35;5.97;;;2.72;;
21943;SDS011;11136;48.778;9.126;2023-03-21T05:38:01;3.63;;;2.10;;
21943;SDS011;11136;48.778;9.126;2023-03-21T05:40:27;3.97;;;2.38;;
21943;SDS011;11136;48.778;9.126;2023-03-21T05:42:53;5.95;;;2.42;;
21943;SDS011;11136;48.778;9.126;2023-03-21T05:45:18;5.68;;;2.33;;
21943;SDS011;11136;48.778;9.126;2023-03-21T05:47:44;2.25;;;2.00;;
21943;SDS011;11136;48.778;9.126;2023-03-21T05:50:10;5.30;;;2.10;;
21943;SDS011;11136;48.778;9.126;2023-03-21T05:52:37;5.80;;;2.70;;
21943;SDS011;11136;48.778;9.126;2023-03-21T05:55:03;3.20;;;2.50;;
21943;SDS011;11136;48.778;9.126;2023-03-21T05:57:29;5.25;;;2.30;;
21943;SDS011;11136;48.778;9.126;2023-03-21T05:59:58;3.33;;;2.80;;
21943;SDS011;11136;48.778;9.126;2023-03-21T06:02:25;3.08;;;2.20;;
21943;SDS011;11136;48.778;9.126;2023-03-21T06:04:50;7.90;;;3.20;;
21943;SDS011;11136;48.778;9.126;2023-03-21T06:07:16;8.43;;;3.03;;
21943;SDS011;11136;48.778;9.126;2023-03-21T06:09:41;5.50;;;2.50;;
21943;SDS011;11136;48.778;9.126;2023-03-21T06:12:07;6.45;;;2.67;;
21943;SDS011;11136;48.778;9.126;2023-03-21T06:14:33;3.03;;;2.25;;
21943;SDS011;11136;48.778;9.126;2023-03-21T06:16:58;3.85;;;3.00;;
21943;SDS011;11136;48.778;9.126;2023-03-21T06:19:24;6.28;;;3.25;;
21943;SDS011;11136;48.778;9.126;2023-03-21T06:21:50;4.25;;;2.67;;
21943;SDS011;11136;48.778;9.126;2023-03-21T06:24:15;5.72;;;2.75;;
21943;SDS011;11136;48.778;9.126;2023-03-21T06:26:42;5.55;;;2.42;;
21943;SDS011;11136;48.778;9.126;2023-03-21T06:29:08;4.72;;;2.97;;
21943;SDS011;11136;48.778;9.126;2023-03-21T06:31:34;3.60;;;2.90;;
21943;SDS011;11136;48.778;9.126;2023-03-21T06:33:59;5.53;;;3.03;;
21943;SDS011;11136;48.778;9.126;2023-03-21T06:36:25;4.75;;;2.85;;
21943;SDS011;11136;48.778;9.126;2023-03-21T06:38:50;3.08;;;2.22;;
21943;SDS011;11136;48.778;9.126;2023-03-21T06:41:16;3.00;;;2.10;;
21943;SDS011;11136;48.778;9.126;2023-03-21T06:43:42;6.10;;;2.35;;
21943;SDS011;11136;48.778;9.126;2023-03-21T06:46:08;4.03;;;2.17;;
21943;SDS011;11136;48.778;9.126;2023-03-21T06:48:34;3.63;;;2.05;;
21943;SDS011;11136;48.778;9.126;2023-03-21T06:51:01;5.15;;;2.97;;
21943;SDS011;11136;48.778;9.126;2023-03-21T06:53:29;4.57;;;2.55;;
21943;SDS011;11136;48.778;9.126;2023-03-21T06:55:56;5.50;;;2.80;;
21943;SDS011;11136;48.778;9.126;2023-03-21T06:58:22;9.70;;;2.85;;
21943;SDS011;11136;48.778;9.126;2023-03-21T07:00:47;2.40;;;1.90;;
21943;SDS011;11136;48.778;9.126;2023-03-21T07:03:13;8.70;;;2.80;;
21943;SDS011;11136;48.778;9.126;2023-03-21T07:05:40;3.42;;;1.67;;
21943;SDS011;11136;48.778;9.126;2023-03-21T07:08:06;3.22;;;2.70;;
21943;SDS011;11136;48.778;9.126;2023-03-21T07:10:37;2.78;;;2.00;;
21943;SDS011;11136;48.778;9.126;2023-03-21T07:13:06;2.97;;;2.25;;
21943;SDS011;11136;48.778;9.126;2023-03-21T07:15:32;5.00;;;2.25;;
21943;SDS011;11136;48.778;9.126;2023-03-21T07:18:02;3.53;;;1.80;;
21943;SDS011;11136;48.778;9.126;2023-03-21T07:20:28;3.70;;;1.67;;
21943;SDS011;11136;48.778;9.126;2023-03-21T07:22:55;6.75;;;1.80;;
21943;SDS011;11136;48.778;9.126;2023-03-21T07:25:21;3.47;;;1.90;;
21943;SDS011;11136;48.778;9.126;2023-03-21T07:27:47;3.95;;;2.20;;
21943;SDS011;11136;48.778;9.126;2023-03-21T07:30:13;2.83;;;2.00;;
21943;SDS011;11136;48.778;9.126;2023-03-21T07:32:39;2.58;;;2.00;;
21943;SDS011;11136;48.778;9.126;2023-03-21T07:35:06;2.70;;;1.75;;
21943;SDS011;11136;48.778;9.126;2023-03-21T07:37:32;2.42;;;1.50;;
21943;SDS011;11136;48.778;9.126;2023-03-21T07:39:58;1.77;;;1.63;;
21943;SDS011;11136;48.778;9.126;2023-03-21T07:42:24;2.60;;;2.10;;
21943;SDS011;11136;48.778;9.126;2023-03-21T07:44:49;3.05;;;1.67;;
21943;SDS011;11136;48.778;9.126;2023-03-21T07:47:16;3.22;;;1.80;;
21943;SDS011;11136;48.778;9.126;2023-03-21T07:49:42;2.40;;;1.70;;
21943;SDS011;11136;48.778;9.126;2023-03-21T07:52:07;2.78;;;1.63;;
21943;SDS011;11136;48.778;9.126;2023-03-21T07:54:33;7.13;;;1.90;;
21943;SDS011;11136;48.778;9.126;2023-03-21T07:56:59;2.78;;;1.80;;
21943;SDS011;11136;48.778;9.126;2023-03-21T07:59:24;2.45;;;1.30;;
21943;SDS011;11136;48.778;9.126;2023-03-21T08:01:50;2.55;;;1.65;;
21943;SDS011;11136;48.778;9.126;2023-03-21T08:04:16;2.80;;;2.00;;
21943;SDS011;11136;48.778;9.126;2023-03-21T08:06:41;4.38;;;1.40;;
21943;SDS011;11136;48.778;9.126;2023-03-21T08:09:07;7.45;;;1.90;;
21943;SDS011;11136;48.778;9.126;2023-03-21T08:11:32;3.60;;;1.70;;
21943;SDS011;11136;48.778;9.126;2023-03-21T08:13:58;2.17;;;1.38;;
21943;SDS011;11136;48.778;9.126;2023-03-21T08:16:25;2.53;;;1.50;;
21943;SDS011;11136;48.778;9.126;2023-03-21T08:18:51;4.97;;;1.88;;
21943;SDS011;11136;48.778;9.126;2023-03-21T08:21:17;1.88;;;1.42;;
21943;SDS011;11136;48.778;9.126;2023-03-21T08:23:43;2.38;;;1.70;;
21943;SDS011;11136;48.778;9.126;2023-03-21T08:26:08;4.50;;;1.75;;
21943;SDS011;11136;48.778;9.126;2023-03-21T08:28:34;3.92;;;1.75;;
21943;SDS011;11136;48.778;9.126;2023-03-21T08:31:01;2.35;;;1.73;;
21943;SDS011;11136;48.778;9.126;2023-03-21T08:33:31;2.53;;;1.50;;
21943;SDS011;11136;48.778;9.126;2023-03-21T08:35:58;2.25;;;1.52;;
21943;SDS011;11136;48.778;9.126;2023-03-21T08:38:24;2.47;;;1.70;;
21943;SDS011;11136;48.778;9.126;2023-03-21T08:40:53;3.60;;;1.35;;
21943;SDS011;11136;48.778;9.126;2023-03-21T08:43:19;3.15;;;1.88;;
21943;SDS011;11136;48.778;9.126;2023-03-21T08:45:45;3.20;;;1.40;;
21943;SDS011;11136;48.778;9.126;2023-03-21T08:48:11;4.00;;;1.60;;
21943;SDS011;11136;48.778;9.126;2023-03-21T08:50:36;2.70;;;1.20;;
21943;SDS011;11136;48.778;9.126;2023-03-21T08:53:02;2.45;;;1.00;;
21943;SDS011;11136;48.778;9.126;2023-03-21T08:55:27;1.63;;;0.85;;
21943;SDS011;11136;48.778;9.126;2023-03-21T08:57:53;3.95;;;1.20;;
21943;SDS011;11136;48.778;9.126;2023-03-21T09:00:19;1.63;;;1.27;;
21943;SDS011;11136;48.778;9.126;2023-03-21T09:02:46;1.88;;;1.20;;
21943;SDS011;11136;48.778;9.126;2023-03-21T09:05:15;2.83;;;1.23;;
21943;SDS011;11136;48.778;9.126;2023-03-21T09:07:41;2.20;;;1.63;;
21943;SDS011;11136;48.778;9.126;2023-03-21T09:10:09;2.17;;;1.40;;
21943;SDS011;11136;48.778;9.126;2023-03-21T09:12:36;3.20;;;1.70;;
21943;SDS011;11136;48.778;9.126;2023-03-21T09:15:02;3.08;;;1.27;;
21943;SDS011;11136;48.778;9.126;2023-03-21T09:17:28;1.58;;;1.35;;
21943;SDS011;11136;48.778;9.126;2023-03-21T09:19:55;1.73;;;1.17;;
21943;SDS011;11136;48.778;9.126;2023-03-21T09:22:23;1.85;;;1.15;;
21943;SDS011;11136;48.778;9.126;2023-03-21T09:24:49;1.65;;;1.10;;
21943;SDS011;11136;48.778;9.126;2023-03-21T09:27:15;2.80;;;1.10;;
21943;SDS011;11136;48.778;9.126;2023-03-21T09:29:49;2.88;;;1.30;;
21943;SDS011;11136;48.778;9.126;2023-03-21T09:32:15;2.58;;;1.25;;
21943;SDS011;11136;48.778;9.126;2023-03-21T09:34:42;2.65;;;1.20;;
21943;SDS011;11136;48.778;9.126;2023-03-21T09:37:08;2.45;;;1.48;;
21943;SDS011;11136;48.778;9.126;2023-03-21T09:39:37;1.40;;;1.00;;
21943;SDS011;11136;48.778;9.126;2023-03-21T09:47:35;3.17;;;1.30;;
21943;SDS011;11136;48.778;9.126;2023-03-21T09:50:14;3.50;;;1.13;;
21943;SDS011;11136;48.778;9.126;2023-03-21T09:55:36;1.80;;;1.20;;
21943;SDS011;11136;48.778;9.126;2023-03-21T10:00:41;2.92;;;1.20;;
21943;SDS011;11136;48.778;9.126;2023-03-21T10:03:18;2.80;;;1.25;;
21943;SDS011;11136;48.778;9.126;2023-03-21T10:05:50;2.63;;;1.25;;
21943;SDS011;11136;48.778;9.126;2023-03-21T10:08:20;1.67;;;1.10;;
21943;SDS011;11136;48.778;9.126;2023-03-21T10:10:55;2.38;;;1.52;;
21943;SDS011;11136;48.778;9.126;2023-03-21T10:13:25;1.50;;;0.82;;
21943;SDS011;11136;48.778;9.126;2023-03-21T10:15:55;3.10;;;1.10;;
21943;SDS011;11136;48.778;9.126;2023-03-21T10:18:38;3.80;;;1.17;;
21943;SDS011;11136;48.778;9.126;2023-03-21T10:21:06;0.98;;;0.80;;
21943;SDS011;11136;48.778;9.126;2023-03-21T10:23:32;1.33;;;0.95;;
21943;SDS011;11136;48.778;9.126;2023-03-21T10:25:58;1.30;;;0.68;;
21943;SDS011;11136;48.778;9.126;2023-03-21T10:28:31;2.03;;;1.00;;
21943;SDS011;11136;48.778;9.126;2023-03-21T10:31:01;1.52;;;0.75;;
21943;SDS011;11136;48.778;9.126;2023-03-21T10:33:34;3.75;;;1.00;;
21943;SDS011;11136;48.778;9.126;2023-03-21T10:36:07;2.47;;;1.00;;
21943;SDS011;11136;48.778;9.126;2023-03-21T10:38:35;1.08;;;0.98;;
21943;SDS011;11136;48.778;9.126;2023-03-21T10:41:08;2.13;;;1.00;;
21943;SDS011;11136;48.778;9.126;2023-03-21T10:43:36;2.40;;;1.30;;
21943;SDS011;11136;48.778;9.126;2023-03-21T10:46:12;1.98;;;1.10;;
21943;SDS011;11136;48.778;9.126;2023-03-21T10:48:38;1.58;;;1.02;;
21943;SDS011;11136;48.778;9.126;2023-03-21T10:51:05;1.27;;;0.90;;
21943;SDS011;11136;48.778;9.126;2023-03-21T10:53:40;1.17;;;0.98;;
21943;SDS011;11136;48.778;9.126;2023-03-21T10:56:12;1.55;;;1.02;;
21943;SDS011;11136;48.778;9.126;2023-03-21T10:58:40;1.20;;;0.90;;
21943;SDS011;11136;48.778;9.126;2023-03-21T11:01:10;1.55;;;0.93;;
21943;SDS011;11136;48.778;9.126;2023-03-21T11:03:41;2.08;;;1.08;;
21943;SDS011;11136;48.778;9.126;2023-03-21T11:06:44;1.88;;;0.88;;
21943;SDS011;11136;48.778;9.126;2023-03-21T11:09:08;1.88;;;1.05;;
21943;SDS011;11136;48.778;9.126;2023-03-21T11:11:40;1.48;;;0.73;;
21943;SDS011;11136;48.778;9.126;2023-03-21T11:14:31;1.52;;;0.70;;
21943;SDS011;11136;48.778;9.126;2023-03-21T11:16:58;1.60;;;0.93;;
21943;SDS011;11136;48.778;9.126;2023-03-21T11:19:31;1.88;;;1.08;;
21943;SDS011;11136;48.778;9.126;2023-03-21T11:21:58;1.95;;;1.35;;
21943;SDS011;11136;48.778;9.126;2023-03-21T11:24:29;1.77;;;1.00;;
21943;SDS011;11136;48.778;9.126;2023-03-21T11:26:56;0.82;;;0.82;;
21943;SDS011;11136;48.778;9.126;2023-03-21T11:29:31;2.10;;;0.85;;
21943;SDS011;11136;48.778;9.126;2023-03-21T11:32:00;1.65;;;1.25;;
21943;SDS011;11136;48.778;9.126;2023-03-21T11:37:26;1.55;;;0.82;;
21943;SDS011;11136;48.778;9.126;2023-03-21T11:39:56;1.77;;;0.77;;
21943;SDS011;11136;48.778;9.126;2023-03-21T11:42:31;2.17;;;0.93;;
21943;SDS011;11136;48.778;9.126;2023-03-21T11:47:39;1.25;;;1.10;;
21943;SDS011;11136;48.778;9.126;2023-03-21T11:50:26;0.85;;;0.70;;
21943;SDS011;11136;48.778;9.126;2023-03-21T11:53:03;1.52;;;1.02;;
21943;SDS011;11136;48.778;9.126;2023-03-21T12:03:46;2.90;;;1.15;;
21943;SDS011;11136;48.778;9.126;2023-03-21T12:06:18;1.95;;;1.13;;
21943;SDS011;11136;48.778;9.126;2023-03-21T12:08:53;1.80;;;1.00;;
21943;SDS011;11136;48.778;9.126;2023-03-21T12:11:36;2.13;;;0.95;;
21943;SDS011;11136;48.778;9.126;2023-03-21T12:14:11;1.70;;;1.05;;
21943;SDS011;11136;48.778;9.126;2023-03-21T12:19:33;2.05;;;0.98;;
21943;SDS011;11136;48.778;9.126;2023-03-21T12:22:27;2.28;;;0.88;;
21943;SDS011;11136;48.778;9.126;2023-03-21T12:25:28;1.35;;;1.17;;
21943;SDS011;11136;48.778;9.126;2023-03-21T12:28:15;1.45;;;1.13;;
21943;SDS011;11136;48.778;9.126;2023-03-21T12:45:51;5.28;;;1.40;;
21943;SDS011;11136;48.778;9.126;2023-03-21T12:48:26;4.22;;;1.30;;
21943;SDS011;11136;48.778;9.126;2023-03-21T12:51:10;3.90;;;1.13;;
21943;SDS011;11136;48.778;9.126;2023-03-21T12:53:55;1.90;;;1.27;;
21943;SDS011;11136;48.778;9.126;2023-03-21T12:59:36;0.77;;;0.77;;
21943;SDS011;11136;48.778;9.126;2023-03-21T13:04:51;1.95;;;1.15;;
21943;SDS011;11136;48.778;9.126;2023-03-21T13:07:34;1.38;;;1.00;;
21943;SDS011;11136;48.778;9.126;2023-03-21T13:10:05;2.67;;;1.08;;
21943;SDS011;11136;48.778;9.126;2023-03-21T13:20:27;1.73;;;0.90;;
21943;SDS011;11136;48.778;9.126;2023-03-21T13:22:57;2.80;;;1.10;;
21943;SDS011;11136;48.778;9.126;2023-03-21T13:25:23;3.20;;;1.10;;
21943;SDS011;11136;48.778;9.126;2023-03-21T13:27:51;1.88;;;1.30;;
21943;SDS011;11136;48.778;9.126;2023-03-21T13:30:20;1.73;;;1.00;;
21943;SDS011;11136;48.778;9.126;2023-03-21T13:32:50;1.70;;;0.98;;
21943;SDS011;11136;48.778;9.126;2023-03-21T13:35:40;2.15;;;1.33;;
21943;SDS011;11136;48.778;9.126;2023-03-21T13:38:13;1.33;;;1.10;;
21943;SDS011;11136;48.778;9.126;2023-03-21T13:41:01;1.73;;;0.90;;
21943;SDS011;11136;48.778;9.126;2023-03-21T13:43:41;3.55;;;1.10;;
21943;SDS011;11136;48.778;9.126;2023-03-21T13:46:13;2.55;;;1.38;;
21943;SDS011;11136;48.778;9.126;2023-03-21T14:04:35;2.40;;;0.80;;
21943;SDS011;11136;48.778;9.126;2023-03-21T14:07:18;3.10;;;1.20;;
21943;SDS011;11136;48.778;9.126;2023-03-21T14:09:52;1.63;;;1.05;;
21943;SDS011;11136;48.778;9.126;2023-03-21T14:12:26;1.45;;;1.20;;
21943;SDS011;11136;48.778;9.126;2023-03-21T14:14:58;4.85;;;1.60;;
21943;SDS011;11136;48.778;9.126;2023-03-21T14:17:31;2.50;;;1.20;;
21943;SDS011;11136;48.778;9.126;2023-03-21T14:19:59;4.20;;;1.30;;
21943;SDS011;11136;48.778;9.126;2023-03-21T14:22:34;4.93;;;1.10;;
21943;SDS011;11136;48.778;9.126;2023-03-21T14:25:02;2.05;;;1.30;;
21943;SDS011;11136;48.778;9.126;2023-03-21T14:27:32;2.83;;;1.55;;
21943;SDS011;11136;48.778;9.126;2023-03-21T14:29:59;2.85;;;1.65;;
21943;SDS011;11136;48.778;9.126;2023-03-21T14:32:27;4.03;;;1.83;;
21943;SDS011;11136;48.778;9.126;2023-03-21T14:34:54;2.47;;;1.50;;
21943;SDS011;11136;48.778;9.126;2023-03-21T14:37:25;1.73;;;1.08;;
21943;SDS011;11136;48.778;9.126;2023-03-21T14:39:55;2.78;;;1.05;;
21943;SDS011;11136;48.778;9.126;2023-03-21T14:42:23;1.80;;;1.30;;
21943;SDS011;11136;48.778;9.126;2023-03-21T14:44:50;2.33;;;1.33;;
21943;SDS011;11136;48.778;9.126;2023-03-21T14:47:17;2.78;;;1.45;;
21943;SDS011;11136;48.778;9.126;2023-03-21T14:49:51;3.72;;;2.03;;
21943;SDS011;11136;48.778;9.126;2023-03-21T14:52:22;5.47;;;1.80;;
21943;SDS011;11136;48.778;9.126;2023-03-21T14:54:49;3.30;;;1.70;;
21943;SDS011;11136;48.778;9.126;2023-03-21T14:57:21;6.82;;;1.75;;
21943;SDS011;11136;48.778;9.126;2023-03-21T14:59:50;2.90;;;1.70;;
21943;SDS011;11136;48.778;9.126;2023-03-21T15:05:18;3.92;;;1.77;;
21943;SDS011;11136;48.778;9.126;2023-03-21T15:11:21;6.68;;;1.80;;
21943;SDS011;11136;48.778;9.126;2023-03-21T15:13:42;5.60;;;1.90;;
21943;SDS011;11136;48.778;9.126;2023-03-21T15:16:10;8.27;;;2.42;;
21943;SDS011;11136;48.778;9.126;2023-03-21T15:18:39;4.22;;;1.83;;
21943;SDS011;11136;48.778;9.126;2023-03-21T15:21:07;4.28;;;2.00;;
21943;SDS011;11136;48.778;9.126;2023-03-21T15:23:45;4.28;;;2.42;;
21943;SDS011;11136;48.778;9.126;2023-03-21T15:26:13;2.47;;;1.80;;
21943;SDS011;11136;48.778;9.126;2023-03-21T15:28:41;3.78;;;2.03;;
21943;SDS011;11136;48.778;9.126;2023-03-21T15:31:14;4.78;;;1.67;;
21943;SDS011;11136;48.778;9.126;2023-03-21T15:33:44;4.05;;;1.88;;
21943;SDS011;11136;48.778;9.126;2023-03-21T15:36:17;5.70;;;2.40;;
21943;SDS011;11136;48.778;9.126;2023-03-21T15:38:45;2.28;;;2.03;;
21943;SDS011;11136;48.778;9.126;2023-03-21T15:41:14;4.88;;;3.22;;
21943;SDS011;11136;48.778;9.126;2023-03-21T15:43:40;7.57;;;2.42;;
21943;SDS011;11136;48.778;9.126;2023-03-21T15:46:14;5.32;;;2.45;;
21943;SDS011;11136;48.778;9.126;2023-03-21T15:48:40;3.95;;;2.55;;
21943;SDS011;11136;48.778;9.126;2023-03-21T15:51:09;7.68;;;2.20;;
21943;SDS011;11136;48.778;9.126;2023-03-21T15:53:41;6.60;;;2.50;;
21943;SDS011;11136;48.778;9.126;2023-03-21T15:56:09;4.55;;;2.75;;
21943;SDS011;11136;48.778;9.126;2023-03-21T15:58:41;6.55;;;2.67;;
21943;SDS011;11136;48.778;9.126;2023-03-21T16:01:15;4.93;;;2.35;;
21943;SDS011;11136;48.778;9.126;2023-03-21T16:03:44;4.65;;;2.55;;
21943;SDS011;11136;48.778;9.126;2023-03-21T16:13:46;5.22;;;2.05;;
21943;SDS011;11136;48.778;9.126;2023-03-21T16:16:17;4.03;;;2.70;;
21943;SDS011;11136;48.778;9.126;2023-03-21T16:18:51;3.65;;;2.67;;
21943;SDS011;11136;48.778;9.126;2023-03-21T16:21:18;8.63;;;2.60;;
21943;SDS011;11136;48.778;9.126;2023-03-21T16:23:45;4.88;;;2.20;;
21943;SDS011;11136;48.778;9.126;2023-03-21T16:26:13;8.70;;;3.00;;
21943;SDS011;11136;48.778;9.126;2023-03-21T16:28:41;8.80;;;2.75;;
21943;SDS011;11136;48.778;9.126;2023-03-21T16:31:17;9.68;;;2.90;;
21943;SDS011;11136;48.778;9.126;2023-03-21T16:33:50;10.20;;;3.10;;
21943;SDS011;11136;48.778;9.126;2023-03-21T16:36:21;5.25;;;2.95;;
21943;SDS011;11136;48.778;9.126;2023-03-21T16:38:52;56.20;;;6.82;;
21943;SDS011;11136;48.778;9.126;2023-03-21T16:41:20;7.68;;;3.30;;
21943;SDS011;11136;48.778;9.126;2023-03-21T16:43:47;9.18;;;2.97;;
21943;SDS011;11136;48.778;9.126;2023-03-21T16:46:25;7.00;;;2.78;;
21943;SDS011;11136;48.778;9.126;2023-03-21T16:48:54;3.42;;;2.30;;
21943;SDS011;11136;48.778;9.126;2023-03-21T16:51:22;5.77;;;2.83;;
21943;SDS011;11136;48.778;9.126;2023-03-21T16:53:53;3.70;;;2.40;;
21943;SDS011;11136;48.778;9.126;2023-03-21T16:56:20;5.60;;;2.90;;
21943;SDS011;11136;48.778;9.126;2023-03-21T16:58:47;5.82;;;2.95;;